sensor_id;sensor_type;location;lat;lon;timestamp;pressure;altitude;pressure_sealevel;temperature
65272;BMP280;51868;48.812;8.198;2022-12-24T00:01:50;99899.69;;;12.84
65272;BMP280;51868;48.812;8.198;2022-12-24T00:04:18;99898.97;;;12.83
65272;BMP280;51868;48.812;8.198;2022-12-24T00:06:46;99900.97;;;12.81
65272;BMP280;51868;48.812;8.198;2022-12-24T00:09:14;99910.03;;;12.81
65272;BMP280;51868;48.812;8.198;2022-12-24T00:11:43;99908.59;;;12.80
65272;BMP280;51868;48.812;8.198;2022-12-24T00:14:10;99900.22;;;12.80
65272;BMP280;51868;48.812;8.198;2022-12-24T00:16:38;99889.00;;;12.78
65272;BMP280;51868;48.812;8.198;2022-12-24T00:19:06;99891.78;;;12.76
65272;BMP280;51868;48.812;8.198;2022-12-24T00:21:34;99887.53;;;12.75
65272;BMP280;51868;48.812;8.198;2022-12-24T00:24:01;99889.00;;;12.76
65272;BMP280;51868;48.812;8.198;2022-12-24T00:26:31;99894.50;;;12.74
65272;BMP280;51868;48.812;8.198;2022-12-24T00:29:01;99891.69;;;12.74
65272;BMP280;51868;48.812;8.198;2022-12-24T00:31:28;99893.13;;;12.75
65272;BMP280;51868;48.812;8.198;2022-12-24T00:33:56;99897.97;;;12.74
65272;BMP280;51868;48.812;8.198;2022-12-24T00:36:24;99893.81;;;12.75
65272;BMP280;51868;48.812;8.198;2022-12-24T00:38:52;99900.16;;;12.78
65272;BMP280;51868;48.812;8.198;2022-12-24T00:41:19;99911.38;;;12.80
65272;BMP280;51868;48.812;8.198;2022-12-24T00:43:56;99923.25;;;12.81
65272;BMP280;51868;48.812;8.198;2022-12-24T00:46:27;99930.94;;;12.82
65272;BMP280;51868;48.812;8.198;2022-12-24T00:48:55;99951.09;;;12.81
65272;BMP280;51868;48.812;8.198;2022-12-24T00:51:23;99962.09;;;12.76
65272;BMP280;51868;48.812;8.198;2022-12-24T00:53:52;99972.38;;;12.72
65272;BMP280;51868;48.812;8.198;2022-12-24T00:56:20;99980.56;;;12.68
65272;BMP280;51868;48.812;8.198;2022-12-24T00:58:49;99979.09;;;12.65
65272;BMP280;51868;48.812;8.198;2022-12-24T01:01:17;99973.38;;;12.61
65272;BMP280;51868;48.812;8.198;2022-12-24T01:03:48;99982.78;;;12.51
65272;BMP280;51868;48.812;8.198;2022-12-24T01:06:18;99990.91;;;12.45
65272;BMP280;51868;48.812;8.198;2022-12-24T01:08:49;99997.63;;;12.38
65272;BMP280;51868;48.812;8.198;2022-12-24T01:11:17;99986.94;;;12.31
65272;BMP280;51868;48.812;8.198;2022-12-24T01:13:45;99999.91;;;12.24
65272;BMP280;51868;48.812;8.198;2022-12-24T01:16:14;100015.75;;;12.19
65272;BMP280;51868;48.812;8.198;2022-12-24T01:18:43;100012.78;;;12.15
65272;BMP280;51868;48.812;8.198;2022-12-24T01:21:13;100002.16;;;12.10
65272;BMP280;51868;48.812;8.198;2022-12-24T01:23:42;100020.13;;;12.07
65272;BMP280;51868;48.812;8.198;2022-12-24T01:26:10;100027.09;;;12.08
65272;BMP280;51868;48.812;8.198;2022-12-24T01:28:38;100032.84;;;12.12
65272;BMP280;51868;48.812;8.198;2022-12-24T01:31:09;100042.66;;;12.15
65272;BMP280;51868;48.812;8.198;2022-12-24T01:33:37;100050.53;;;12.20
65272;BMP280;51868;48.812;8.198;2022-12-24T01:36:06;100052.75;;;12.24
65272;BMP280;51868;48.812;8.198;2022-12-24T01:38:35;100061.09;;;12.24
65272;BMP280;51868;48.812;8.198;2022-12-24T01:41:03;100061.19;;;12.26
65272;BMP280;51868;48.812;8.198;2022-12-24T01:43:48;100068.09;;;12.25
65272;BMP280;51868;48.812;8.198;2022-12-24T01:46:18;100073.66;;;12.25
65272;BMP280;51868;48.812;8.198;2022-12-24T01:48:48;100084.16;;;12.26
65272;BMP280;51868;48.812;8.198;2022-12-24T01:51:23;100086.38;;;12.30
65272;BMP280;51868;48.812;8.198;2022-12-24T01:53:58;100085.63;;;12.29
65272;BMP280;51868;48.812;8.198;2022-12-24T01:56:30;100074.50;;;12.29
65272;BMP280;51868;48.812;8.198;2022-12-24T01:59:02;100072.41;;;12.28
65272;BMP280;51868;48.812;8.198;2022-12-24T02:01:31;100066.84;;;12.28
65272;BMP280;51868;48.812;8.198;2022-12-24T02:04:00;100088.38;;;12.27
65272;BMP280;51868;48.812;8.198;2022-12-24T02:06:31;100080.66;;;12.26
65272;BMP280;51868;48.812;8.198;2022-12-24T02:09:00;100064.50;;;12.22
65272;BMP280;51868;48.812;8.198;2022-12-24T02:11:29;100073.59;;;12.23
65272;BMP280;51868;48.812;8.198;2022-12-24T02:13:59;100083.22;;;12.20
65272;BMP280;51868;48.812;8.198;2022-12-24T02:16:36;100088.78;;;12.20
65272;BMP280;51868;48.812;8.198;2022-12-24T02:19:20;100077.66;;;12.20
65272;BMP280;51868;48.812;8.198;2022-12-24T02:21:57;100067.28;;;12.22
65272;BMP280;51868;48.812;8.198;2022-12-24T02:27:40;100070.06;;;12.22
65272;BMP280;51868;48.812;8.198;2022-12-24T02:30:15;100077.66;;;12.20
65272;BMP280;51868;48.812;8.198;2022-12-24T02:32:58;100083.22;;;12.20
65272;BMP280;51868;48.812;8.198;2022-12-24T02:35:38;100084.56;;;12.19
65272;BMP280;51868;48.812;8.198;2022-12-24T02:38:13;100078.91;;;12.17
65272;BMP280;51868;48.812;8.198;2022-12-24T02:40:50;100060.06;;;12.15
65272;BMP280;51868;48.812;8.198;2022-12-24T02:43:21;100068.41;;;12.15
65272;BMP280;51868;48.812;8.198;2022-12-24T02:45:54;100059.34;;;12.15
65272;BMP280;51868;48.812;8.198;2022-12-24T02:48:26;100064.91;;;12.15
65272;BMP280;51868;48.812;8.198;2022-12-24T02:50:57;100064.88;;;12.13
65272;BMP280;51868;48.812;8.198;2022-12-24T02:53:27;100068.34;;;12.13
65272;BMP280;51868;48.812;8.198;2022-12-24T02:56:08;100069.09;;;12.14
65272;BMP280;51868;48.812;8.198;2022-12-24T02:58:49;100067.66;;;12.13
65272;BMP280;51868;48.812;8.198;2022-12-24T03:01:24;100065.56;;;12.13
65272;BMP280;51868;48.812;8.198;2022-12-24T03:04:05;100061.47;;;12.14
65272;BMP280;51868;48.812;8.198;2022-12-24T03:06:41;100081.56;;;12.13
65272;BMP280;51868;48.812;8.198;2022-12-24T03:09:16;100094.03;;;12.12
65272;BMP280;51868;48.812;8.198;2022-12-24T03:11:49;100100.31;;;12.12
65272;BMP280;51868;48.812;8.198;2022-12-24T03:14:20;100095.47;;;12.13
65272;BMP280;51868;48.812;8.198;2022-12-24T03:16:50;100094.03;;;12.12
65272;BMP280;51868;48.812;8.198;2022-12-24T03:19:19;100090.53;;;12.11
65272;BMP280;51868;48.812;8.198;2022-12-24T03:21:53;100088.47;;;12.12
65272;BMP280;51868;48.812;8.198;2022-12-24T03:24:23;100080.03;;;12.10
65272;BMP280;51868;48.812;8.198;2022-12-24T03:26:51;100084.16;;;12.09
65272;BMP280;51868;48.812;8.198;2022-12-24T03:29:19;100094.56;;;12.08
65272;BMP280;51868;48.812;8.198;2022-12-24T03:31:51;100107.78;;;12.08
65272;BMP280;51868;48.812;8.198;2022-12-24T03:34:19;100113.25;;;12.05
65272;BMP280;51868;48.812;8.198;2022-12-24T03:36:47;100104.84;;;12.03
65272;BMP280;51868;48.812;8.198;2022-12-24T03:39:16;100122.88;;;12.02
65272;BMP280;51868;48.812;8.198;2022-12-24T03:41:43;100105.41;;;12.00
65272;BMP280;51868;48.812;8.198;2022-12-24T03:44:11;100104.69;;;11.99
65272;BMP280;51868;48.812;8.198;2022-12-24T03:46:39;100108.81;;;11.98
65272;BMP280;51868;48.812;8.198;2022-12-24T03:49:08;100126.22;;;11.99
65272;BMP280;51868;48.812;8.198;2022-12-24T03:51:36;100115.09;;;11.99
65272;BMP280;51868;48.812;8.198;2022-12-24T03:54:04;100129.63;;;11.97
65272;BMP280;51868;48.812;8.198;2022-12-24T03:56:31;100125.50;;;11.98
65272;BMP280;51868;48.812;8.198;2022-12-24T03:58:59;100131.06;;;11.98
65272;BMP280;51868;48.812;8.198;2022-12-24T04:01:27;100149.81;;;11.98
65272;BMP280;51868;48.812;8.198;2022-12-24T04:03:56;100138.69;;;11.98
65272;BMP280;51868;48.812;8.198;2022-12-24T04:06:25;100143.53;;;11.97
65272;BMP280;51868;48.812;8.198;2022-12-24T04:08:52;100153.31;;;11.98
65272;BMP280;51868;48.812;8.198;2022-12-24T04:11:20;100158.88;;;11.98
65272;BMP280;51868;48.812;8.198;2022-12-24T04:13:48;100149.19;;;11.99
65272;BMP280;51868;48.812;8.198;2022-12-24T04:16:16;100144.34;;;12.00
65272;BMP280;51868;48.812;8.198;2022-12-24T04:18:44;100148.47;;;11.99
65272;BMP280;51868;48.812;8.198;2022-12-24T04:21:12;100159.66;;;12.01
65272;BMP280;51868;48.812;8.198;2022-12-24T04:23:41;100149.25;;;12.01
65272;BMP280;51868;48.812;8.198;2022-12-24T04:26:11;100157.69;;;12.03
65272;BMP280;51868;48.812;8.198;2022-12-24T04:28:39;100169.41;;;12.02
65272;BMP280;51868;48.812;8.198;2022-12-24T04:31:09;100176.34;;;12.01
65272;BMP280;51868;48.812;8.198;2022-12-24T04:33:38;100168.00;;;12.01
65272;BMP280;51868;48.812;8.198;2022-12-24T04:36:07;100161.72;;;12.00
65272;BMP280;51868;48.812;8.198;2022-12-24T04:38:35;100161.03;;;12.00
65272;BMP280;51868;48.812;8.198;2022-12-24T04:41:05;100161.66;;;11.98
65272;BMP280;51868;48.812;8.198;2022-12-24T04:43:33;100183.19;;;11.98
65272;BMP280;51868;48.812;8.198;2022-12-24T04:46:05;100177.72;;;12.00
65272;BMP280;51868;48.812;8.198;2022-12-24T04:48:33;100193.69;;;11.99
65272;BMP280;51868;48.812;8.198;2022-12-24T04:51:01;100195.75;;;11.99
65272;BMP280;51868;48.812;8.198;2022-12-24T04:53:29;100197.19;;;12.00
65272;BMP280;51868;48.812;8.198;2022-12-24T04:55:57;100197.88;;;12.00
65272;BMP280;51868;48.812;8.198;2022-12-24T04:58:28;100195.81;;;12.01
65272;BMP280;51868;48.812;8.198;2022-12-24T05:00:56;100206.94;;;12.01
65272;BMP280;51868;48.812;8.198;2022-12-24T05:03:29;100197.97;;;12.02
65272;BMP280;51868;48.812;8.198;2022-12-24T05:06:00;100202.19;;;12.03
65272;BMP280;51868;48.812;8.198;2022-12-24T05:08:28;100197.22;;;12.02
65272;BMP280;51868;48.812;8.198;2022-12-24T05:10:56;100192.41;;;12.02
65272;BMP280;51868;48.812;8.198;2022-12-24T05:13:26;100186.84;;;12.02
65272;BMP280;51868;48.812;8.198;2022-12-24T05:16:07;100194.53;;;12.04
65272;BMP280;51868;48.812;8.198;2022-12-24T05:18:35;100194.53;;;12.04
65272;BMP280;51868;48.812;8.198;2022-12-24T05:21:10;100177.16;;;12.03
65272;BMP280;51868;48.812;8.198;2022-12-24T05:23:38;100170.16;;;12.02
65272;BMP280;51868;48.812;8.198;2022-12-24T05:26:27;100174.97;;;12.02
65272;BMP280;51868;48.812;8.198;2022-12-24T05:28:58;100171.50;;;12.01
65272;BMP280;51868;48.812;8.198;2022-12-24T05:31:29;100167.28;;;12.00
65272;BMP280;51868;48.812;8.198;2022-12-24T05:33:59;100168.66;;;11.99
65272;BMP280;51868;48.812;8.198;2022-12-24T05:36:26;100180.41;;;11.98
65272;BMP280;51868;48.812;8.198;2022-12-24T05:38:54;100178.97;;;11.97
65272;BMP280;51868;48.812;8.198;2022-12-24T05:41:23;100178.25;;;11.96
65272;BMP280;51868;48.812;8.198;2022-12-24T05:43:51;100181.75;;;11.97
65272;BMP280;51868;48.812;8.198;2022-12-24T05:46:22;100202.56;;;11.96
65272;BMP280;51868;48.812;8.198;2022-12-24T05:48:51;100193.50;;;11.95
65272;BMP280;51868;48.812;8.198;2022-12-24T05:51:21;100196.19;;;11.93
65272;BMP280;51868;48.812;8.198;2022-12-24T05:53:50;100191.91;;;11.90
65272;BMP280;51868;48.812;8.198;2022-12-24T05:56:20;100203.03;;;11.90
65272;BMP280;51868;48.812;8.198;2022-12-24T05:58:48;100216.84;;;11.88
65272;BMP280;51868;48.812;8.198;2022-12-24T06:01:16;100204.13;;;11.83
65272;BMP280;51868;48.812;8.198;2022-12-24T06:03:46;100195.56;;;11.77
65272;BMP280;51868;48.812;8.198;2022-12-24T06:06:17;100206.47;;;11.73
65272;BMP280;51868;48.812;8.198;2022-12-24T06:08:47;100195.19;;;11.69
65272;BMP280;51868;48.812;8.198;2022-12-24T06:11:17;100193.59;;;11.64
65272;BMP280;51868;48.812;8.198;2022-12-24T06:13:45;100196.19;;;11.60
65272;BMP280;51868;48.812;8.198;2022-12-24T06:16:14;100211.34;;;11.56
65272;BMP280;51868;48.812;8.198;2022-12-24T06:18:42;100204.91;;;11.52
65272;BMP280;51868;48.812;8.198;2022-12-24T06:21:12;100202.13;;;11.52
65272;BMP280;51868;48.812;8.198;2022-12-24T06:23:41;100212.44;;;11.49
65272;BMP280;51868;48.812;8.198;2022-12-24T06:26:11;100211.69;;;11.49
65272;BMP280;51868;48.812;8.198;2022-12-24T06:28:39;100213.75;;;11.48
65272;BMP280;51868;48.812;8.198;2022-12-24T06:31:11;100209.59;;;11.47
65272;BMP280;51868;48.812;8.198;2022-12-24T06:33:39;100218.53;;;11.46
65272;BMP280;51868;48.812;8.198;2022-12-24T06:36:09;100219.16;;;11.44
65272;BMP280;51868;48.812;8.198;2022-12-24T06:38:45;100228.84;;;11.43
65272;BMP280;51868;48.812;8.198;2022-12-24T06:41:13;100230.28;;;11.44
65272;BMP280;51868;48.812;8.198;2022-12-24T06:43:42;100234.50;;;11.45
65272;BMP280;51868;48.812;8.198;2022-12-24T06:46:10;100228.22;;;11.45
65272;BMP280;51868;48.812;8.198;2022-12-24T06:48:38;100250.47;;;11.45
65272;BMP280;51868;48.812;8.198;2022-12-24T06:51:06;100251.16;;;11.45
65272;BMP280;51868;48.812;8.198;2022-12-24T06:53:33;100249.72;;;11.44
65272;BMP280;51868;48.812;8.198;2022-12-24T06:56:08;100252.50;;;11.44
65272;BMP280;51868;48.812;8.198;2022-12-24T06:58:36;100259.41;;;11.43
65272;BMP280;51868;48.812;8.198;2022-12-24T07:01:06;100256.63;;;11.43
65272;BMP280;51868;48.812;8.198;2022-12-24T07:03:34;100262.78;;;11.42
65272;BMP280;51868;48.812;8.198;2022-12-24T07:06:02;100270.41;;;11.41
65272;BMP280;51868;48.812;8.198;2022-12-24T07:08:29;100270.41;;;11.41
65272;BMP280;51868;48.812;8.198;2022-12-24T07:10:59;100278.03;;;11.41
65272;BMP280;51868;48.812;8.198;2022-12-24T07:13:28;100282.91;;;11.40
65272;BMP280;51868;48.812;8.198;2022-12-24T07:15:58;100287.09;;;11.41
65272;BMP280;51868;48.812;8.198;2022-12-24T07:18:26;100283.00;;;11.42
65272;BMP280;51868;48.812;8.198;2022-12-24T07:20:53;100289.25;;;11.43
65272;BMP280;51868;48.812;8.198;2022-12-24T07:23:23;100287.91;;;11.44
65272;BMP280;51868;48.812;8.198;2022-12-24T07:25:51;100296.25;;;11.44
65272;BMP280;51868;48.812;8.198;2022-12-24T07:28:18;100294.91;;;11.45
65272;BMP280;51868;48.812;8.198;2022-12-24T07:30:55;100294.19;;;11.44
65272;BMP280;51868;48.812;8.198;2022-12-24T07:33:23;100290.06;;;11.45
65272;BMP280;51868;48.812;8.198;2022-12-24T07:35:57;100295.63;;;11.45
65272;BMP280;51868;48.812;8.198;2022-12-24T07:38:26;100299.03;;;11.44
65272;BMP280;51868;48.812;8.198;2022-12-24T07:40:54;100292.28;;;11.49
65272;BMP280;51868;48.812;8.198;2022-12-24T07:43:23;100298.69;;;11.51
65272;BMP280;51868;48.812;8.198;2022-12-24T07:45:55;100304.31;;;11.53
65272;BMP280;51868;48.812;8.198;2022-12-24T07:48:24;100309.81;;;11.51
65272;BMP280;51868;48.812;8.198;2022-12-24T07:50:52;100304.25;;;11.51
65272;BMP280;51868;48.812;8.198;2022-12-24T07:53:23;100302.69;;;11.48
65272;BMP280;51868;48.812;8.198;2022-12-24T07:55:51;100304.06;;;11.47
65272;BMP280;51868;48.812;8.198;2022-12-24T07:58:18;100300.47;;;11.45
65272;BMP280;51868;48.812;8.198;2022-12-24T08:00:46;100302.50;;;11.44
65272;BMP280;51868;48.812;8.198;2022-12-24T08:03:21;100308.72;;;11.43
65272;BMP280;51868;48.812;8.198;2022-12-24T08:05:49;100297.59;;;11.43
65272;BMP280;51868;48.812;8.198;2022-12-24T08:08:18;100308.00;;;11.42
65272;BMP280;51868;48.812;8.198;2022-12-24T08:10:45;100305.22;;;11.42
65272;BMP280;51868;48.812;8.198;2022-12-24T08:13:16;100306.53;;;11.41
65272;BMP280;51868;48.812;8.198;2022-12-24T08:15:44;100312.81;;;11.42
65272;BMP280;51868;48.812;8.198;2022-12-24T08:18:12;100308.00;;;11.42
65272;BMP280;51868;48.812;8.198;2022-12-24T08:20:41;100312.09;;;11.41
65272;BMP280;51868;48.812;8.198;2022-12-24T08:23:09;100327.44;;;11.42
65272;BMP280;51868;48.812;8.198;2022-12-24T08:25:44;100324.75;;;11.44
65272;BMP280;51868;48.812;8.198;2022-12-24T08:28:17;100331.75;;;11.45
65272;BMP280;51868;48.812;8.198;2022-12-24T08:30:47;100327.44;;;11.42
65272;BMP280;51868;48.812;8.198;2022-12-24T08:33:21;100323.94;;;11.42
65272;BMP280;51868;48.812;8.198;2022-12-24T08:35:52;100326.09;;;11.43
65272;BMP280;51868;48.812;8.198;2022-12-24T08:38:23;100328.78;;;11.41
65272;BMP280;51868;48.812;8.198;2022-12-24T08:40:52;100335.78;;;11.42
65272;BMP280;51868;48.812;8.198;2022-12-24T08:43:20;100334.44;;;11.43
65272;BMP280;51868;48.812;8.198;2022-12-24T08:45:51;100334.44;;;11.43
65272;BMP280;51868;48.812;8.198;2022-12-24T08:48:23;100330.31;;;11.44
65272;BMP280;51868;48.812;8.198;2022-12-24T08:50:52;100334.44;;;11.43
65272;BMP280;51868;48.812;8.198;2022-12-24T08:53:24;100333.94;;;11.47
65272;BMP280;51868;48.812;8.198;2022-12-24T08:55:52;100333.25;;;11.48
65272;BMP280;51868;48.812;8.198;2022-12-24T08:58:21;100336.69;;;11.47
65272;BMP280;51868;48.812;8.198;2022-12-24T09:00:49;100340.28;;;11.49
65272;BMP280;51868;48.812;8.198;2022-12-24T09:03:17;100336.75;;;11.49
65272;BMP280;51868;48.812;8.198;2022-12-24T09:05:54;100344.47;;;11.50
65272;BMP280;51868;48.812;8.198;2022-12-24T09:08:33;100352.81;;;11.50
65272;BMP280;51868;48.812;8.198;2022-12-24T09:11:03;100344.59;;;11.52
65272;BMP280;51868;48.812;8.198;2022-12-24T09:13:32;100349.53;;;11.54
65272;BMP280;51868;48.812;8.198;2022-12-24T09:16:02;100354.44;;;11.55
65272;BMP280;51868;48.812;8.198;2022-12-24T09:18:30;100364.31;;;11.58
65272;BMP280;51868;48.812;8.198;2022-12-24T09:21:05;100365.13;;;11.61
65272;BMP280;51868;48.812;8.198;2022-12-24T09:23:34;100363.84;;;11.64
65272;BMP280;51868;48.812;8.198;2022-12-24T09:26:05;100369.50;;;11.66
65272;BMP280;51868;48.812;8.198;2022-12-24T09:28:36;100369.63;;;11.68
65272;BMP280;51868;48.812;8.198;2022-12-24T09:31:19;100375.44;;;11.74
65272;BMP280;51868;48.812;8.198;2022-12-24T09:33:49;100372.81;;;11.78
65272;BMP280;51868;48.812;8.198;2022-12-24T09:36:25;100376.50;;;11.83
65272;BMP280;51868;48.812;8.198;2022-12-24T09:38:53;100379.41;;;11.85
65272;BMP280;51868;48.812;8.198;2022-12-24T09:41:52;100378.84;;;11.89
65272;BMP280;51868;48.812;8.198;2022-12-24T09:44:57;100377.06;;;11.95
65272;BMP280;51868;48.812;8.198;2022-12-24T09:47:32;100386.94;;;11.98
65272;BMP280;51868;48.812;8.198;2022-12-24T09:50:21;100385.84;;;12.05
65272;BMP280;51868;48.812;8.198;2022-12-24T09:52:52;100385.91;;;12.08
65272;BMP280;51868;48.812;8.198;2022-12-24T09:55:25;100387.53;;;12.13
65272;BMP280;51868;48.812;8.198;2022-12-24T09:57:57;100380.66;;;12.14
65272;BMP280;51868;48.812;8.198;2022-12-24T10:00:32;100383.47;;;12.16
65272;BMP280;51868;48.812;8.198;2022-12-24T10:03:12;100380.28;;;12.21
65272;BMP280;51868;48.812;8.198;2022-12-24T10:06:00;100392.38;;;12.28
65272;BMP280;51868;48.812;8.198;2022-12-24T10:08:44;100402.72;;;12.43
65272;BMP280;51868;48.812;8.198;2022-12-24T10:11:22;100394.88;;;12.89
65272;BMP280;51868;48.812;8.198;2022-12-24T10:14:21;100398.00;;;12.97
65272;BMP280;51868;48.812;8.198;2022-12-24T10:17:16;100413.50;;;12.85
65272;BMP280;51868;48.812;8.198;2022-12-24T10:19:51;100410.31;;;12.74
65272;BMP280;51868;48.812;8.198;2022-12-24T10:22:30;100415.63;;;12.68
65272;BMP280;51868;48.812;8.198;2022-12-24T10:25:21;100417.34;;;12.60
65272;BMP280;51868;48.812;8.198;2022-12-24T10:27:59;100412.16;;;12.52
65272;BMP280;51868;48.812;8.198;2022-12-24T10:30:34;100409.84;;;12.46
65272;BMP280;51868;48.812;8.198;2022-12-24T10:33:17;100419.44;;;12.43
65272;BMP280;51868;48.812;8.198;2022-12-24T10:35:52;100422.88;;;12.42
65272;BMP280;51868;48.812;8.198;2022-12-24T10:38:40;100426.44;;;12.44
65272;BMP280;51868;48.812;8.198;2022-12-24T10:41:10;100425.84;;;12.46
65272;BMP280;51868;48.812;8.198;2022-12-24T10:43:51;100419.63;;;12.47
65272;BMP280;51868;48.812;8.198;2022-12-24T10:46:44;100414.16;;;12.49
65272;BMP280;51868;48.812;8.198;2022-12-24T10:49:18;100414.22;;;12.51
65272;BMP280;51868;48.812;8.198;2022-12-24T10:51:50;100418.38;;;12.50
65272;BMP280;51868;48.812;8.198;2022-12-24T10:54:20;100429.44;;;12.48
65272;BMP280;51868;48.812;8.198;2022-12-24T10:56:57;100434.09;;;12.44
65272;BMP280;51868;48.812;8.198;2022-12-24T10:59:26;100434.09;;;12.44
65272;BMP280;51868;48.812;8.198;2022-12-24T11:01:55;100428.34;;;12.40
65272;BMP280;51868;48.812;8.198;2022-12-24T11:04:25;100427.53;;;12.37
65272;BMP280;51868;48.812;8.198;2022-12-24T11:06:55;100417.75;;;12.36
65272;BMP280;51868;48.812;8.198;2022-12-24T11:09:25;100422.06;;;12.39
65272;BMP280;51868;48.812;8.198;2022-12-24T11:11:56;100420.97;;;12.46
65272;BMP280;51868;48.812;8.198;2022-12-24T11:14:34;100415.91;;;12.59
65272;BMP280;51868;48.812;8.198;2022-12-24T11:17:03;100419.88;;;12.69
65272;BMP280;51868;48.812;8.198;2022-12-24T11:19:32;100423.66;;;12.78
65272;BMP280;51868;48.812;8.198;2022-12-24T11:22:03;100422.41;;;12.81
65272;BMP280;51868;48.812;8.198;2022-12-24T11:24:33;100433.06;;;12.87
65272;BMP280;51868;48.812;8.198;2022-12-24T11:27:28;100431.09;;;12.89
65272;BMP280;51868;48.812;8.198;2022-12-24T11:30:23;100440.19;;;12.90
65272;BMP280;51868;48.812;8.198;2022-12-24T11:35:55;100443.44;;;12.84
65272;BMP280;51868;48.812;8.198;2022-12-24T11:38:24;100439.75;;;12.80
65272;BMP280;51868;48.812;8.198;2022-12-24T11:41:01;100434.66;;;12.74
65272;BMP280;51868;48.812;8.198;2022-12-24T11:43:45;100435.13;;;12.68
65272;BMP280;51868;48.812;8.198;2022-12-24T11:46:19;100430.09;;;12.65
65272;BMP280;51868;48.812;8.198;2022-12-24T11:48:48;100435.41;;;12.59
65272;BMP280;51868;48.812;8.198;2022-12-24T11:51:34;100428.63;;;12.46
65272;BMP280;51868;48.812;8.198;2022-12-24T11:54:08;100427.53;;;12.37
65272;BMP280;51868;48.812;8.198;2022-12-24T11:56:42;100397.38;;;12.32
65272;BMP280;51868;48.812;8.198;2022-12-24T11:59:16;100398.13;;;12.32
65272;BMP280;51868;48.812;8.198;2022-12-24T12:01:52;100402.84;;;12.29
65272;BMP280;51868;48.812;8.198;2022-12-24T12:04:23;100397.03;;;12.57
65272;BMP280;51868;48.812;8.198;2022-12-24T12:06:53;100398.16;;;13.02
65272;BMP280;51868;48.812;8.198;2022-12-24T12:09:24;100399.50;;;13.36
65272;BMP280;51868;48.812;8.198;2022-12-24T12:11:58;100385.22;;;13.64
65272;BMP280;51868;48.812;8.198;2022-12-24T12:14:31;100380.41;;;14.06
65272;BMP280;51868;48.812;8.198;2022-12-24T12:17:09;100374.25;;;14.52
65272;BMP280;51868;48.812;8.198;2022-12-24T12:19:43;100379.06;;;15.17
65272;BMP280;51868;48.812;8.198;2022-12-24T12:22:20;100390.00;;;15.55
65272;BMP280;51868;48.812;8.198;2022-12-24T12:24:54;100389.09;;;15.74
65272;BMP280;51868;48.812;8.198;2022-12-24T12:27:27;100390.34;;;15.67
65272;BMP280;51868;48.812;8.198;2022-12-24T12:29:59;100386.03;;;15.40
65272;BMP280;51868;48.812;8.198;2022-12-24T12:32:38;100398.16;;;15.01
65272;BMP280;51868;48.812;8.198;2022-12-24T12:35:19;100392.31;;;14.70
65272;BMP280;51868;48.812;8.198;2022-12-24T12:37:53;100398.19;;;14.57
65272;BMP280;51868;48.812;8.198;2022-12-24T12:40:28;100387.03;;;14.37
65272;BMP280;51868;48.812;8.198;2022-12-24T12:43:05;100398.25;;;14.17
65272;BMP280;51868;48.812;8.198;2022-12-24T12:45:50;100396.38;;;14.04
65272;BMP280;51868;48.812;8.198;2022-12-24T12:48:28;100407.97;;;13.96
65272;BMP280;51868;48.812;8.198;2022-12-24T12:51:05;100402.88;;;13.90
65272;BMP280;51868;48.812;8.198;2022-12-24T12:53:52;100383.63;;;14.82
65272;BMP280;51868;48.812;8.198;2022-12-24T12:56:29;100378.31;;;16.42
65272;BMP280;51868;48.812;8.198;2022-12-24T12:59:00;100380.69;;;17.53
65272;BMP280;51868;48.812;8.198;2022-12-24T13:01:38;100386.34;;;17.93
65272;BMP280;51868;48.812;8.198;2022-12-24T13:07:28;100386.78;;;17.43
65272;BMP280;51868;48.812;8.198;2022-12-24T13:10:17;100387.19;;;17.61
65272;BMP280;51868;48.812;8.198;2022-12-24T13:13:16;100399.59;;;16.84
65272;BMP280;51868;48.812;8.198;2022-12-24T13:16:12;100403.72;;;15.97
65272;BMP280;51868;48.812;8.198;2022-12-24T13:19:07;100402.19;;;15.41
65272;BMP280;51868;48.812;8.198;2022-12-24T13:21:42;100401.66;;;15.01
65272;BMP280;51868;48.812;8.198;2022-12-24T13:24:15;100397.84;;;14.68
65272;BMP280;51868;48.812;8.198;2022-12-24T13:27:03;100403.06;;;14.36
65272;BMP280;51868;48.812;8.198;2022-12-24T13:29:44;100411.97;;;14.11
65272;BMP280;51868;48.812;8.198;2022-12-24T13:32:38;100409.97;;;13.93
65272;BMP280;51868;48.812;8.198;2022-12-24T13:35:36;100412.75;;;13.73
65272;BMP280;51868;48.812;8.198;2022-12-24T13:38:29;100408.72;;;13.59
65272;BMP280;51868;48.812;8.198;2022-12-24T13:41:42;100404.03;;;13.45
65272;BMP280;51868;48.812;8.198;2022-12-24T13:44:23;100400.84;;;13.35
65272;BMP280;51868;48.812;8.198;2022-12-24T13:47:01;100394.97;;;13.27
65272;BMP280;51868;48.812;8.198;2022-12-24T13:49:33;100389.78;;;13.19
65272;BMP280;51868;48.812;8.198;2022-12-24T13:52:18;100382.81;;;13.18
65272;BMP280;51868;48.812;8.198;2022-12-24T13:55:04;100376.53;;;13.18
65272;BMP280;51868;48.812;8.198;2022-12-24T13:57:37;100377.94;;;13.19
65272;BMP280;51868;48.812;8.198;2022-12-24T14:00:32;100382.97;;;13.22
65272;BMP280;51868;48.812;8.198;2022-12-24T14:03:21;100386.38;;;13.21
65272;BMP280;51868;48.812;8.198;2022-12-24T14:05:52;100393.16;;;13.16
65272;BMP280;51868;48.812;8.198;2022-12-24T14:08:32;100397.84;;;13.11
65272;BMP280;51868;48.812;8.198;2022-12-24T14:11:12;100400.47;;;13.07
65272;BMP280;51868;48.812;8.198;2022-12-24T14:14:25;100391.25;;;13.03
65272;BMP280;51868;48.812;8.198;2022-12-24T14:17:02;100386.22;;;12.99
65272;BMP280;51868;48.812;8.198;2022-12-24T14:19:40;100381.22;;;12.95
65272;BMP280;51868;48.812;8.198;2022-12-24T14:22:19;100385.25;;;12.92
65272;BMP280;51868;48.812;8.198;2022-12-24T14:24:55;100383.66;;;12.87
65272;BMP280;51868;48.812;8.198;2022-12-24T14:27:29;100385.66;;;12.85
65272;BMP280;51868;48.812;8.198;2022-12-24T14:30:03;100386.94;;;12.82
65272;BMP280;51868;48.812;8.198;2022-12-24T14:32:33;100388.19;;;12.79
65272;BMP280;51868;48.812;8.198;2022-12-24T14:35:06;100387.31;;;12.74
65272;BMP280;51868;48.812;8.198;2022-12-24T14:37:38;100381.66;;;12.72
65272;BMP280;51868;48.812;8.198;2022-12-24T14:40:17;100386.44;;;12.69